createdAt,value
2022-10-22T00:07:38.481Z,15.52
2022-10-22T00:10:11.916Z,15.87
2022-10-22T00:12:43.071Z,16.70
2022-10-22T00:15:12.110Z,16.53
2022-10-22T00:17:40.627Z,10.33
2022-10-22T00:20:18.552Z,11.20
2022-10-22T00:22:57.285Z,11.43
2022-10-22T00:25:28.217Z,11.87
2022-10-22T00:27:56.492Z,11.93
2022-10-22T00:30:26.658Z,12.90
2022-10-22T00:33:03.814Z,13.33
2022-10-22T00:35:33.442Z,12.37
2022-10-22T00:38:11.049Z,13.30
2022-10-22T00:40:40.094Z,12.83
2022-10-22T00:43:15.540Z,14.10
2022-10-22T00:45:52.672Z,14.37
2022-10-22T00:48:31.694Z,14.37
2022-10-22T00:51:09.325Z,12.80
2022-10-22T00:54:02.794Z,15.47
2022-10-22T00:56:32.174Z,10.73
2022-10-22T00:59:04.354Z,15.17
2022-10-22T01:01:34.999Z,22.97
2022-10-22T01:04:03.561Z,21.53
2022-10-22T01:06:34.682Z,31.00
2022-10-22T01:09:50.104Z,23.60
2022-10-22T01:12:57.384Z,25.13
2022-10-22T01:15:53.534Z,26.87
2022-10-22T01:18:44.816Z,27.73
2022-10-22T01:21:36.605Z,25.60
2022-10-22T01:24:47.809Z,26.50
2022-10-22T01:27:27.699Z,24.10
2022-10-22T01:30:16.190Z,24.10
2022-10-22T01:33:11.388Z,20.33
2022-10-22T01:35:42.798Z,26.67
2022-10-22T01:38:15.620Z,26.67
2022-10-22T01:40:43.459Z,24.50
2022-10-22T01:43:11.706Z,25.90
2022-10-22T01:45:50.890Z,23.53
2022-10-22T01:48:36.739Z,22.23
2022-10-22T01:51:30.174Z,23.77
2022-10-22T01:54:20.810Z,21.13
2022-10-22T01:56:57.325Z,17.53
2022-10-22T01:59:45.210Z,19.47
2022-10-22T02:02:41.807Z,19.57
2022-10-22T02:05:12.754Z,19.67
2022-10-22T02:07:44.510Z,16.77
2022-10-22T02:10:13.214Z,19.80
2022-10-22T02:12:43.045Z,18.83
2022-10-22T02:15:12.424Z,18.87
2022-10-22T02:17:42.730Z,15.27
2022-10-22T02:20:23.485Z,19.70
2022-10-22T02:22:50.977Z,19.10
2022-10-22T02:25:18.365Z,18.97
2022-10-22T02:28:23.349Z,17.23
2022-10-22T02:30:55.274Z,17.33
2022-10-22T02:33:29.010Z,16.90
2022-10-22T02:35:57.736Z,15.63
2022-10-22T02:38:27.515Z,14.67
2022-10-22T02:40:54.787Z,14.10
2022-10-22T02:43:25.645Z,16.03
2022-10-22T02:45:52.839Z,17.07
2022-10-22T02:50:48.176Z,15.43
2022-10-22T02:53:15.231Z,16.17
2022-10-22T02:55:42.250Z,16.67
2022-10-22T02:58:09.325Z,14.17
2022-10-22T03:00:36.360Z,18.27
2022-10-22T03:03:03.625Z,15.93
2022-10-22T03:05:30.659Z,15.20
2022-10-22T03:07:57.748Z,18.10
2022-10-22T03:10:24.774Z,18.73
2022-10-22T03:12:51.977Z,18.50
2022-10-22T03:15:19.085Z,16.73
2022-10-22T03:17:46.189Z,18.83
2022-10-22T03:20:14.045Z,17.40
2022-10-22T03:22:42.684Z,19.07
2022-10-22T03:25:16.334Z,19.33
2022-10-22T03:27:43.964Z,18.50
2022-10-22T03:30:11.818Z,20.23
2022-10-22T03:32:39.015Z,18.20
2022-10-22T03:35:06.850Z,19.40
2022-10-22T03:37:35.159Z,17.20
2022-10-22T03:40:04.948Z,16.77
2022-10-22T03:42:32.388Z,16.73
2022-10-22T03:44:59.489Z,18.67
2022-10-22T03:47:26.613Z,18.60
2022-10-22T03:49:53.780Z,16.47
2022-10-22T03:52:20.834Z,17.47
2022-10-22T03:54:47.969Z,18.37
2022-10-22T03:57:15.674Z,17.97
2022-10-22T03:59:45.643Z,18.13
2022-10-22T04:02:14.219Z,18.53
2022-10-22T04:04:41.294Z,16.70
2022-10-22T04:07:08.995Z,16.37
2022-10-22T04:09:36.816Z,16.83
2022-10-22T04:12:06.661Z,18.40
2022-10-22T04:14:34.161Z,15.90
2022-10-22T04:17:01.508Z,17.30
2022-10-22T04:19:28.540Z,18.17
2022-10-22T04:21:59.381Z,17.13
2022-10-22T04:24:27.156Z,19.40
2022-10-22T04:26:55.581Z,18.47
2022-10-22T04:29:23.620Z,16.80
2022-10-22T04:31:50.603Z,16.13
2022-10-22T04:34:17.602Z,17.33
2022-10-22T04:36:44.709Z,22.30
2022-10-22T04:39:11.724Z,20.30
2022-10-22T04:41:40.080Z,17.83
2022-10-22T04:44:11.056Z,16.67
2022-10-22T04:46:40.939Z,17.07
2022-10-22T04:49:08.167Z,17.73
2022-10-22T04:51:35.236Z,13.13
2022-10-22T04:54:02.636Z,13.60
2022-10-22T04:56:31.492Z,17.60
2022-10-22T04:59:05.327Z,17.30
2022-10-22T05:01:45.439Z,17.67
2022-10-22T05:04:16.064Z,17.57
2022-10-22T05:06:43.902Z,17.13
2022-10-22T05:09:17.754Z,16.53
2022-10-22T05:11:48.803Z,13.77
2022-10-22T05:14:25.581Z,15.27
2022-10-22T05:16:52.828Z,16.07
2022-10-22T05:19:33.699Z,15.13
2022-10-22T05:22:02.900Z,17.20
2022-10-22T05:24:31.419Z,16.40
2022-10-22T05:26:59.817Z,15.17
2022-10-22T05:29:27.461Z,15.10
2022-10-22T05:31:54.816Z,15.90
2022-10-22T05:34:21.819Z,16.47
2022-10-22T05:36:48.969Z,12.77
2022-10-22T05:39:16.179Z,14.73
2022-10-22T05:41:43.206Z,15.40
2022-10-22T05:44:13.516Z,14.97
2022-10-22T05:46:41.062Z,14.60
2022-10-22T05:49:08.450Z,14.43
2022-10-22T05:51:36.951Z,15.80
2022-10-22T05:54:06.523Z,15.60
2022-10-22T05:56:34.661Z,15.03
2022-10-22T06:01:32.125Z,14.33
2022-10-22T06:04:01.143Z,14.20
2022-10-22T06:06:40.380Z,11.90
2022-10-22T06:09:11.778Z,12.50
2022-10-22T06:11:39.259Z,13.40
2022-10-22T06:14:06.263Z,12.67
2022-10-22T06:16:33.296Z,13.10
2022-10-22T06:19:03.468Z,12.23
2022-10-22T06:21:31.684Z,11.37
2022-10-22T06:24:00.426Z,10.97
2022-10-22T06:26:28.261Z,12.20
2022-10-22T06:28:56.379Z,12.33
2022-10-22T06:31:24.648Z,13.63
2022-10-22T06:33:51.695Z,14.23
2022-10-22T06:36:23.505Z,11.20
2022-10-22T06:38:55.482Z,13.23
2022-10-22T06:41:25.639Z,11.40
2022-10-22T06:43:57.685Z,13.13
2022-10-22T06:46:25.744Z,12.10
2022-10-22T06:48:58.378Z,12.27
2022-10-22T06:51:26.779Z,13.17
2022-10-22T06:53:55.803Z,11.37
2022-10-22T06:56:25.886Z,12.13
2022-10-22T06:58:54.501Z,13.07
2022-10-22T07:01:25.221Z,11.60
2022-10-22T07:03:53.687Z,10.00
2022-10-22T07:06:22.769Z,10.87
2022-10-22T07:08:50.202Z,11.97
2022-10-22T07:11:23.046Z,12.33
2022-10-22T07:13:50.877Z,10.73
2022-10-22T07:16:18.701Z,12.13
2022-10-22T07:18:46.262Z,11.47
2022-10-22T07:21:16.101Z,8.70
2022-10-22T07:23:43.691Z,10.80
2022-10-22T07:26:14.580Z,9.60
2022-10-22T07:28:42.181Z,9.13
2022-10-22T07:31:10.622Z,9.10
2022-10-22T07:33:38.656Z,7.77
2022-10-22T07:36:08.597Z,9.23
2022-10-22T07:38:36.276Z,8.70
2022-10-22T07:41:04.316Z,8.73
2022-10-22T07:43:31.408Z,10.23
2022-10-22T07:46:00.018Z,9.50
2022-10-22T07:48:26.981Z,8.83
2022-10-22T07:50:54.006Z,9.80
2022-10-22T07:53:21.646Z,9.20
2022-10-22T07:55:50.472Z,10.27
2022-10-22T07:58:21.526Z,9.97
2022-10-22T08:00:51.951Z,10.47
2022-10-22T08:03:22.284Z,9.87
2022-10-22T08:05:59.186Z,9.20
2022-10-22T08:08:32.335Z,9.30
2022-10-22T08:11:02.031Z,9.63
2022-10-22T08:13:32.740Z,9.37
2022-10-22T08:16:12.041Z,9.23
2022-10-22T08:18:42.054Z,8.93
2022-10-22T08:21:31.037Z,9.17
2022-10-22T08:24:00.055Z,9.13
2022-10-22T08:26:28.745Z,8.73
2022-10-22T08:28:58.259Z,7.77
2022-10-22T08:31:34.341Z,8.90
2022-10-22T08:34:08.975Z,7.73
2022-10-22T08:36:40.780Z,9.23
2022-10-22T08:39:11.893Z,9.00
2022-10-22T08:42:00.971Z,9.03
2022-10-22T08:44:52.219Z,9.30
2022-10-22T08:47:52.101Z,8.03
2022-10-22T08:50:27.801Z,8.87
2022-10-22T08:53:02.980Z,9.13
2022-10-22T08:55:36.508Z,8.37
2022-10-22T08:58:49.345Z,8.77
2022-10-22T09:01:51.341Z,8.10
2022-10-22T09:07:33.381Z,8.50
2022-10-22T09:10:04.278Z,8.67
2022-10-22T09:12:32.802Z,9.00
2022-10-22T09:15:03.270Z,11.53
2022-10-22T09:18:12.060Z,8.37
2022-10-22T09:24:34.706Z,9.10
2022-10-22T09:27:07.681Z,8.70
2022-10-22T09:29:38.051Z,8.27
2022-10-22T09:32:36.226Z,9.13
2022-10-22T09:35:04.854Z,9.97
2022-10-22T09:37:32.300Z,12.63
2022-10-22T09:40:06.357Z,16.77
2022-10-22T09:42:38.295Z,15.13
2022-10-22T09:45:15.171Z,8.80
2022-10-22T09:48:01.167Z,8.70
2022-10-22T09:50:51.486Z,9.60
2022-10-22T09:53:42.424Z,9.10
2022-10-22T09:56:31.040Z,8.93
2022-10-22T09:59:06.816Z,8.70
2022-10-22T10:01:44.156Z,8.20
2022-10-22T10:04:18.259Z,7.80
2022-10-22T10:06:56.761Z,8.10
2022-10-22T10:09:36.572Z,6.63
2022-10-22T10:12:41.508Z,8.23
2022-10-22T10:15:47.280Z,12.23
2022-10-22T10:18:47.019Z,9.57
2022-10-22T10:21:44.736Z,11.50
2022-10-22T10:24:36.619Z,10.10
2022-10-22T10:27:38.144Z,7.37
2022-10-22T10:30:24.497Z,9.87
2022-10-22T10:33:46.326Z,8.00
2022-10-22T10:37:04.501Z,8.00
2022-10-22T10:39:59.821Z,8.63
2022-10-22T10:42:55.001Z,7.97
2022-10-22T10:45:38.721Z,8.85
2022-10-22T10:48:42.259Z,8.70
2022-10-22T10:51:47.917Z,8.65
2022-10-22T10:54:41.322Z,6.47
2022-10-22T10:57:50.104Z,8.33
2022-10-22T11:00:59.651Z,6.85
2022-10-22T11:04:04.556Z,6.10
2022-10-22T11:06:36.697Z,6.57
2022-10-22T11:09:39.846Z,6.45
2022-10-22T11:12:17.460Z,7.97
2022-10-22T11:15:22.580Z,8.18
2022-10-22T11:17:53.536Z,7.50
2022-10-22T11:20:44.134Z,7.57
2022-10-22T11:23:27.653Z,10.68
2022-10-22T11:25:56.337Z,10.07
2022-10-22T11:28:42.440Z,10.80
2022-10-22T11:31:19.244Z,9.95
2022-10-22T11:34:05.050Z,8.32
2022-10-22T11:36:46.977Z,9.40
2022-10-22T11:39:52.801Z,8.98
2022-10-22T11:45:50.481Z,8.93
2022-10-22T11:48:19.663Z,9.75
2022-10-22T11:51:03.256Z,8.50
2022-10-22T11:53:39.696Z,8.77
2022-10-22T11:56:26.767Z,9.80
2022-10-22T11:59:02.817Z,34.50
2022-10-22T12:01:45.462Z,45.45
2022-10-22T12:04:22.681Z,14.95
2022-10-22T12:07:29.181Z,11.02
2022-10-22T12:10:06.164Z,9.13
2022-10-22T12:12:43.479Z,9.15
2022-10-22T12:15:32.883Z,8.95
2022-10-22T12:18:11.647Z,9.77
2022-10-22T12:21:05.727Z,9.15
2022-10-22T12:23:35.621Z,10.32
2022-10-22T12:26:13.211Z,10.60
2022-10-22T12:28:43.902Z,11.13
2022-10-22T12:31:19.921Z,22.65
2022-10-22T12:33:51.921Z,18.48
2022-10-22T12:36:21.859Z,21.02
2022-10-22T12:38:50.541Z,18.10
2022-10-22T12:41:21.316Z,23.63
2022-10-22T12:43:58.436Z,20.33
2022-10-22T12:46:29.041Z,12.65
2022-10-22T12:49:05.779Z,12.02
2022-10-22T12:51:34.281Z,12.73
2022-10-22T12:54:25.826Z,13.02
2022-10-22T12:56:57.446Z,14.07
2022-10-22T12:59:34.917Z,14.43
2022-10-22T13:02:11.249Z,13.68
2022-10-22T13:07:40.069Z,15.00
2022-10-22T13:10:31.196Z,16.15
2022-10-22T13:13:06.499Z,15.23
2022-10-22T13:15:39.591Z,13.80
2022-10-22T13:18:25.762Z,14.00
2022-10-22T13:21:10.687Z,11.73
2022-10-22T13:23:38.796Z,13.85
2022-10-22T13:26:20.861Z,13.10
2022-10-22T13:29:18.936Z,14.43
2022-10-22T13:31:53.561Z,14.43
2022-10-22T13:34:23.878Z,14.35
2022-10-22T13:36:54.241Z,15.20
2022-10-22T13:39:24.868Z,11.55
2022-10-22T13:41:52.538Z,14.38
2022-10-22T13:44:29.421Z,15.30
2022-10-22T13:46:58.681Z,15.03
2022-10-22T13:49:27.344Z,13.90
2022-10-22T13:51:57.992Z,14.50
2022-10-22T13:54:28.942Z,14.00
2022-10-22T13:57:04.481Z,15.65
2022-10-22T13:59:34.446Z,13.33
2022-10-22T14:02:06.677Z,14.27
2022-10-22T14:04:42.647Z,12.97
2022-10-22T14:07:17.223Z,11.93
2022-10-22T14:09:52.676Z,13.80
2022-10-22T14:12:22.676Z,14.63
2022-10-22T14:14:53.306Z,14.57
2022-10-22T14:17:23.790Z,14.23
2022-10-22T14:19:53.376Z,13.47
2022-10-22T14:22:23.647Z,14.07
2022-10-22T14:25:00.160Z,13.40
2022-10-22T14:27:36.596Z,14.70
2022-10-22T14:30:05.660Z,12.63
2022-10-22T14:32:35.992Z,13.97
2022-10-22T14:35:05.580Z,14.53
2022-10-22T14:37:34.056Z,12.88
2022-10-22T14:40:11.305Z,15.30
2022-10-22T14:42:46.143Z,15.37
2022-10-22T14:45:27.661Z,18.30
2022-10-22T14:47:57.614Z,15.83
2022-10-22T14:50:34.871Z,14.00
2022-10-22T14:53:04.396Z,16.43
2022-10-22T14:55:41.696Z,18.57
2022-10-22T14:58:13.621Z,20.97
2022-10-22T15:00:46.834Z,19.77
2022-10-22T15:03:17.937Z,16.67
2022-10-22T15:05:49.001Z,20.10
2022-10-22T15:08:25.089Z,28.50
2022-10-22T15:11:07.760Z,25.17
2022-10-22T15:13:36.896Z,26.23
2022-10-22T15:16:13.539Z,25.67
2022-10-22T15:18:42.238Z,20.97
2022-10-22T15:21:35.546Z,18.90
2022-10-22T15:24:07.301Z,18.30
2022-10-22T15:26:35.981Z,18.53
2022-10-22T15:29:05.059Z,19.37
2022-10-22T15:32:07.215Z,19.55
2022-10-22T15:34:37.006Z,19.77
2022-10-22T15:37:11.016Z,23.20
2022-10-22T15:39:42.797Z,18.07
2022-10-22T15:42:21.906Z,17.43
2022-10-22T15:45:00.194Z,16.10
2022-10-22T15:47:31.109Z,16.00
2022-10-22T15:50:00.630Z,15.80
2022-10-22T15:52:33.676Z,15.20
2022-10-22T15:55:07.137Z,14.53
2022-10-22T15:57:35.996Z,14.80
2022-10-22T16:00:06.543Z,15.00
2022-10-22T16:02:43.642Z,15.00
2022-10-22T16:05:12.145Z,14.67
2022-10-22T16:07:43.308Z,15.03
2022-10-22T16:10:16.619Z,14.80
2022-10-22T16:12:48.561Z,15.10
2022-10-22T16:15:20.380Z,14.23
2022-10-22T16:17:54.325Z,13.43
2022-10-22T16:20:25.126Z,14.30
2022-10-22T16:23:29.513Z,12.67
2022-10-22T16:26:03.847Z,13.65
2022-10-22T16:31:11.258Z,12.83
2022-10-22T16:33:47.742Z,13.83
2022-10-22T16:36:21.416Z,14.10
2022-10-22T16:38:51.661Z,12.80
2022-10-22T16:41:26.461Z,13.77
2022-10-22T16:43:55.656Z,12.53
2022-10-22T16:46:31.730Z,14.15
2022-10-22T16:49:04.815Z,13.67
2022-10-22T16:51:34.092Z,14.73
2022-10-22T16:54:06.898Z,14.73
2022-10-22T16:56:38.621Z,15.37
2022-10-22T16:59:06.530Z,13.30
2022-10-22T17:01:40.578Z,12.83
2022-10-22T17:04:17.927Z,14.20
2022-10-22T17:06:48.396Z,13.57
2022-10-22T17:09:18.920Z,12.13
2022-10-22T17:11:47.969Z,13.90
2022-10-22T17:14:26.462Z,15.27
2022-10-22T17:16:55.899Z,13.80
2022-10-22T17:19:25.075Z,14.27
2022-10-22T17:21:54.936Z,13.00
2022-10-22T17:24:25.486Z,17.47
2022-10-22T17:26:56.931Z,18.90
2022-10-22T17:29:26.411Z,25.10
2022-10-22T17:31:54.715Z,20.13
2022-10-22T17:34:24.578Z,18.20
2022-10-22T17:36:56.363Z,19.53
2022-10-22T17:39:27.003Z,12.47
2022-10-22T17:41:55.586Z,16.87
2022-10-22T17:44:26.471Z,16.80
2022-10-22T17:46:55.419Z,15.23
2022-10-22T17:49:24.299Z,14.30
2022-10-22T17:51:54.775Z,14.53
2022-10-22T17:54:25.740Z,15.03
2022-10-22T17:56:56.142Z,15.63
2022-10-22T17:59:25.076Z,16.00
2022-10-22T18:01:59.462Z,16.50
2022-10-22T18:04:30.961Z,11.07
2022-10-22T18:06:59.836Z,12.77
2022-10-22T18:09:29.168Z,14.33
2022-10-22T18:11:57.781Z,12.30
2022-10-22T18:14:26.331Z,12.63
2022-10-22T18:17:03.241Z,11.50
2022-10-22T18:19:40.963Z,12.37
2022-10-22T18:22:17.516Z,11.13
2022-10-22T18:24:46.138Z,9.40
2022-10-22T18:27:19.781Z,12.23
2022-10-22T18:29:51.220Z,12.37
2022-10-22T18:32:19.521Z,12.83
2022-10-22T18:34:57.521Z,12.07
2022-10-22T18:37:29.741Z,12.57
2022-10-22T18:39:58.237Z,12.73
2022-10-22T18:42:29.186Z,10.80
2022-10-22T18:45:01.581Z,9.57
2022-10-22T18:47:37.771Z,10.37
2022-10-22T18:50:12.221Z,11.67
2022-10-22T18:52:40.831Z,12.20
2022-10-22T18:55:09.458Z,12.03
2022-10-22T18:57:39.092Z,12.60
2022-10-22T19:00:09.376Z,11.83
2022-10-22T19:02:38.512Z,10.57
2022-10-22T19:05:10.536Z,10.90
2022-10-22T19:07:38.772Z,11.20
2022-10-22T19:10:09.260Z,10.57
2022-10-22T19:12:39.766Z,11.10
2022-10-22T19:15:18.395Z,11.27
2022-10-22T19:17:57.126Z,11.33
2022-10-22T19:20:33.271Z,10.50
2022-10-22T19:23:07.771Z,11.13
2022-10-22T19:25:37.496Z,11.07
2022-10-22T19:28:25.478Z,11.17
2022-10-22T19:31:07.758Z,10.40
2022-10-22T19:33:37.306Z,13.13
2022-10-22T19:36:13.601Z,17.37
2022-10-22T19:38:53.582Z,11.87
2022-10-22T19:41:24.077Z,13.23
2022-10-22T19:44:00.140Z,12.83
2022-10-22T19:46:33.551Z,13.67
2022-10-22T19:49:15.442Z,16.73
2022-10-22T19:51:47.140Z,16.53
2022-10-22T19:54:21.516Z,14.93
2022-10-22T19:57:09.694Z,14.30
2022-10-22T19:59:44.546Z,15.20
2022-10-22T20:02:20.839Z,12.53
2022-10-22T20:04:50.075Z,12.87
2022-10-22T20:07:18.357Z,12.70
2022-10-22T20:09:54.312Z,15.10
2022-10-22T20:12:23.851Z,15.10
2022-10-22T20:14:54.257Z,11.40
2022-10-22T20:17:25.301Z,18.63
2022-10-22T20:19:53.738Z,15.53
2022-10-22T20:22:24.309Z,11.73
2022-10-22T20:24:54.721Z,10.70
2022-10-22T20:27:28.216Z,14.50
2022-10-22T20:29:58.502Z,14.97
2022-10-22T20:32:31.460Z,13.80
2022-10-22T20:35:07.061Z,14.20
2022-10-22T20:37:35.677Z,12.87
2022-10-22T20:40:06.897Z,12.93
2022-10-22T20:42:35.377Z,13.10
2022-10-22T20:45:07.335Z,11.50
2022-10-22T20:47:51.212Z,11.00
2022-10-22T20:50:34.237Z,11.90
2022-10-22T20:53:13.491Z,10.93
2022-10-22T20:55:57.423Z,11.77
2022-10-22T20:58:27.380Z,11.80
2022-10-22T21:01:10.851Z,11.13
2022-10-22T21:03:38.478Z,11.10
2022-10-22T21:06:07.557Z,10.70
2022-10-22T21:08:42.536Z,9.40
2022-10-22T21:11:11.376Z,8.83
2022-10-22T21:13:41.195Z,8.50
2022-10-22T21:16:21.760Z,8.70
2022-10-22T21:18:50.381Z,8.27
2022-10-22T21:21:26.979Z,8.67
2022-10-22T21:23:55.736Z,12.13
2022-10-22T21:26:24.102Z,10.10
2022-10-22T21:29:00.981Z,8.23
2022-10-22T21:31:29.935Z,8.60
2022-10-22T21:33:56.936Z,8.60
2022-10-22T21:36:25.529Z,9.17
2022-10-22T21:39:03.506Z,7.10
2022-10-22T21:41:33.939Z,5.73
2022-10-22T21:44:02.762Z,6.47
2022-10-22T21:46:31.041Z,6.40
2022-10-22T21:49:04.900Z,6.57
2022-10-22T21:51:38.541Z,7.40
2022-10-22T21:54:07.086Z,7.17
2022-10-22T21:56:44.644Z,7.47
2022-10-22T21:59:14.976Z,6.73
2022-10-22T22:01:43.768Z,7.27
2022-10-22T22:04:17.446Z,7.70
2022-10-22T22:06:47.900Z,6.80
2022-10-22T22:09:17.394Z,7.00
2022-10-22T22:11:45.781Z,7.30
2022-10-22T22:14:14.375Z,7.77
2022-10-22T22:16:42.721Z,6.83
2022-10-22T22:19:11.116Z,7.17
2022-10-22T22:21:41.211Z,6.10
2022-10-22T22:24:13.561Z,9.13
2022-10-22T22:26:41.668Z,8.17
2022-10-22T22:29:14.081Z,11.17
2022-10-22T22:31:46.396Z,11.83
2022-10-22T22:34:19.201Z,12.03
2022-10-22T22:36:51.786Z,12.30
2022-10-22T22:39:25.781Z,13.80
2022-10-22T22:42:01.517Z,12.13
2022-10-22T22:44:40.140Z,13.97
2022-10-22T22:47:09.846Z,14.13
2022-10-22T22:49:39.564Z,13.10
2022-10-22T22:52:08.995Z,13.63
2022-10-22T22:54:39.342Z,15.10
2022-10-22T22:57:09.276Z,15.53
2022-10-22T22:59:40.589Z,13.80
2022-10-22T23:02:11.791Z,14.77
2022-10-22T23:04:40.127Z,14.00
2022-10-22T23:07:09.014Z,12.23
2022-10-22T23:09:43.021Z,13.50
2022-10-22T23:12:10.640Z,18.30
2022-10-22T23:14:46.332Z,14.57
2022-10-22T23:17:13.496Z,15.33
2022-10-22T23:22:23.856Z,15.53
2022-10-22T23:24:53.525Z,17.20
2022-10-22T23:27:24.136Z,15.83
2022-10-22T23:29:52.941Z,12.40
2022-10-22T23:32:26.964Z,14.73
2022-10-22T23:34:55.190Z,12.60
2022-10-22T23:37:22.210Z,12.37
2022-10-22T23:39:59.208Z,12.50
2022-10-22T23:42:35.656Z,11.27
2022-10-22T23:45:05.370Z,11.47
2022-10-22T23:47:34.705Z,10.50
2022-10-22T23:50:10.430Z,12.03
2022-10-22T23:52:47.552Z,10.90
2022-10-22T23:55:16.929Z,10.57
2022-10-22T23:57:45.830Z,11.03
